Terminal Aerodrome Forecast
Issued by NWS

Home | Current Version | Previous Version | Text Only | Print | Product List | Glossary On
Versions: 1 2 3 4 5 6 7 8 9 10 11 12 13 14 15 16 17 18 19 20 21
000
FTUS41 KPBZ 272300
TAFBVI
TAF
KBVI 272338Z 2800/2824 28008KT P6SM -SHSN OVC035
      TEMPO 2802/2805 1SM -SHSN OVC015
     FM280800 30007KT P6SM OVC035
     FM281600 25008KT P6SM BKN050
      AMD NOT SKED=

USA.gov is the U.S. government's official web portal to all federal, state and local government web resources and services.